sensor_id;sensor_type;location;lat;lon;timestamp;pressure;altitude;pressure_sealevel;temperature;humidity
66021;BME280;52789;59.980;30.346;2023-06-19T00:00:33;102036.91;;;12.36;83.31
66021;BME280;52789;59.980;30.346;2023-06-19T00:02:58;102032.56;;;12.35;83.84
66021;BME280;52789;59.980;30.346;2023-06-19T00:05:24;102040.56;;;12.35;82.78
66021;BME280;52789;59.980;30.346;2023-06-19T00:07:50;102032.72;;;12.34;83.27
66021;BME280;52789;59.980;30.346;2023-06-19T00:10:16;102038.06;;;12.34;83.28
66021;BME280;52789;59.980;30.346;2023-06-19T00:12:41;102041.72;;;12.33;83.11
66021;BME280;52789;59.980;30.346;2023-06-19T00:15:07;102036.38;;;12.33;83.38
66021;BME280;52789;59.980;30.346;2023-06-19T00:17:34;102033.16;;;12.29;83.56
66021;BME280;52789;59.980;30.346;2023-06-19T00:20:02;102034.97;;;12.29;83.87
66021;BME280;52789;59.980;30.346;2023-06-19T00:22:28;102035.81;;;12.29;84.72
66021;BME280;52789;59.980;30.346;2023-06-19T00:24:53;102033.84;;;12.31;83.97
66021;BME280;52789;59.980;30.346;2023-06-19T00:27:18;102029.34;;;12.32;83.77
66021;BME280;52789;59.980;30.346;2023-06-19T00:29:44;102027.81;;;12.29;85.09
66021;BME280;52789;59.980;30.346;2023-06-19T00:32:09;102027.94;;;12.28;84.95
66021;BME280;52789;59.980;30.346;2023-06-19T00:34:34;102024.72;;;12.24;84.34
66021;BME280;52789;59.980;30.346;2023-06-19T00:37:02;102021.50;;;12.21;85.88
66021;BME280;52789;59.980;30.346;2023-06-19T00:39:27;102026.13;;;12.19;85.52
66021;BME280;52789;59.980;30.346;2023-06-19T00:41:52;102021.94;;;12.16;86.86
66021;BME280;52789;59.980;30.346;2023-06-19T00:44:18;102024.75;;;12.15;87.40
66021;BME280;52789;59.980;30.346;2023-06-19T00:46:43;102017.81;;;12.12;88.05
66021;BME280;52789;59.980;30.346;2023-06-19T00:49:09;102021.19;;;12.14;86.71
66021;BME280;52789;59.980;30.346;2023-06-19T00:51:35;102027.13;;;12.18;86.40
66021;BME280;52789;59.980;30.346;2023-06-19T00:54:00;102027.13;;;12.18;88.18
66021;BME280;52789;59.980;30.346;2023-06-19T00:56:26;102022.63;;;12.18;87.15
66021;BME280;52789;59.980;30.346;2023-06-19T00:58:52;102026.84;;;12.21;87.73
66021;BME280;52789;59.980;30.346;2023-06-19T01:01:18;102024.31;;;12.19;88.80
66021;BME280;52789;59.980;30.346;2023-06-19T01:03:44;102026.84;;;12.21;87.46
66021;BME280;52789;59.980;30.346;2023-06-19T01:06:10;102026.84;;;12.21;89.43
66021;BME280;52789;59.980;30.346;2023-06-19T01:09:13;102020.50;;;12.22;88.70
66021;BME280;52789;59.980;30.346;2023-06-19T01:11:35;102023.19;;;12.22;89.02
66021;BME280;52789;59.980;30.346;2023-06-19T01:14:08;102017.84;;;12.22;88.01
66021;BME280;52789;59.980;30.346;2023-06-19T01:16:35;102020.38;;;12.23;88.02
66021;BME280;52789;59.980;30.346;2023-06-19T01:19:01;102020.22;;;12.25;89.62
66021;BME280;52789;59.980;30.346;2023-06-19T01:21:27;102019.09;;;12.27;89.73
66021;BME280;52789;59.980;30.346;2023-06-19T01:23:53;102024.28;;;12.29;89.96
66021;BME280;52789;59.980;30.346;2023-06-19T01:26:19;102027.81;;;12.29;90.12
66021;BME280;52789;59.980;30.346;2023-06-19T01:28:45;102025.69;;;12.33;89.15
66021;BME280;52789;59.980;30.346;2023-06-19T01:31:21;102028.34;;;12.33;91.88
66021;BME280;52789;59.980;30.346;2023-06-19T01:33:50;102018.81;;;12.30;92.32
66021;BME280;52789;59.980;30.346;2023-06-19T01:36:17;102028.50;;;12.31;89.64
66021;BME280;52789;59.980;30.346;2023-06-19T01:38:42;102021.31;;;12.32;91.54
66021;BME280;52789;59.980;30.346;2023-06-19T01:41:09;102024.84;;;12.32;92.20
66021;BME280;52789;59.980;30.346;2023-06-19T01:43:34;102023.72;;;12.35;91.08
66021;BME280;52789;59.980;30.346;2023-06-19T01:46:00;102015.69;;;12.35;91.56
66021;BME280;52789;59.980;30.346;2023-06-19T01:48:26;102019.06;;;12.37;92.80
66021;BME280;52789;59.980;30.346;2023-06-19T01:50:51;102008.22;;;12.38;93.02
66021;BME280;52789;59.980;30.346;2023-06-19T01:53:17;102015.13;;;12.41;90.99
66021;BME280;52789;59.980;30.346;2023-06-19T01:55:42;102010.34;;;12.45;91.12
66021;BME280;52789;59.980;30.346;2023-06-19T01:58:08;102014.28;;;12.50;89.67
66021;BME280;52789;59.980;30.346;2023-06-19T02:00:33;102019.31;;;12.53;90.65
66021;BME280;52789;59.980;30.346;2023-06-19T02:03:02;102014.66;;;12.55;89.54
66021;BME280;52789;59.980;30.346;2023-06-19T02:05:28;102021.56;;;12.58;90.02
66021;BME280;52789;59.980;30.346;2023-06-19T02:07:54;102020.41;;;12.60;90.59
66021;BME280;52789;59.980;30.346;2023-06-19T02:10:21;102022.81;;;12.63;90.83
66021;BME280;52789;59.980;30.346;2023-06-19T02:12:46;102021.50;;;12.67;90.14
66021;BME280;52789;59.980;30.346;2023-06-19T02:15:12;102024.88;;;12.69;91.28
66021;BME280;52789;59.980;30.346;2023-06-19T02:17:37;102030.06;;;12.71;91.93
66021;BME280;52789;59.980;30.346;2023-06-19T02:20:04;102021.66;;;12.76;90.27
66021;BME280;52789;59.980;30.346;2023-06-19T02:22:33;102022.50;;;12.76;91.64
66021;BME280;52789;59.980;30.346;2023-06-19T02:24:59;102022.50;;;12.76;91.66
66021;BME280;52789;59.980;30.346;2023-06-19T02:27:24;102025.72;;;12.80;91.43
66021;BME280;52789;59.980;30.346;2023-06-19T02:29:49;102021.06;;;12.82;90.97
66021;BME280;52789;59.980;30.346;2023-06-19T02:32:15;102025.81;;;12.88;90.89
66021;BME280;52789;59.980;30.346;2023-06-19T02:34:40;102023.84;;;12.90;91.30
66021;BME280;52789;59.980;30.346;2023-06-19T02:37:05;102025.91;;;12.96;90.92
66021;BME280;52789;59.980;30.346;2023-06-19T02:39:31;102020.69;;;13.04;89.43
66021;BME280;52789;59.980;30.346;2023-06-19T02:41:57;102019.09;;;13.11;89.73
66021;BME280;52789;59.980;30.346;2023-06-19T02:44:22;102027.41;;;13.18;89.31
66021;BME280;52789;59.980;30.346;2023-06-19T02:46:47;102020.59;;;13.23;88.80
66021;BME280;52789;59.980;30.346;2023-06-19T02:49:13;102029.81;;;13.39;88.40
66021;BME280;52789;59.980;30.346;2023-06-19T02:51:38;102024.66;;;13.73;87.45
66021;BME280;52789;59.980;30.346;2023-06-19T02:54:03;102020.94;;;14.27;85.17
66021;BME280;52789;59.980;30.346;2023-06-19T02:56:29;102019.50;;;15.27;80.77
66021;BME280;52789;59.980;30.346;2023-06-19T02:58:54;102019.97;;;16.70;73.92
66021;BME280;52789;59.980;30.346;2023-06-19T03:01:19;102017.69;;;17.91;70.25
66021;BME280;52789;59.980;30.346;2023-06-19T03:03:44;102020.50;;;18.73;66.32
66021;BME280;52789;59.980;30.346;2023-06-19T03:06:11;102011.81;;;19.22;64.24
66021;BME280;52789;59.980;30.346;2023-06-19T03:08:38;102018.28;;;19.78;61.13
66021;BME280;52789;59.980;30.346;2023-06-19T03:11:04;102019.53;;;19.97;59.62
66021;BME280;52789;59.980;30.346;2023-06-19T03:16:14;102014.31;;;20.79;57.57
66021;BME280;52789;59.980;30.346;2023-06-19T03:18:40;101999.59;;;21.29;56.59
66021;BME280;52789;59.980;30.346;2023-06-19T03:21:05;102009.19;;;21.39;51.49
66021;BME280;52789;59.980;30.346;2023-06-19T03:23:30;102002.22;;;21.77;52.36
66021;BME280;52789;59.980;30.346;2023-06-19T03:25:56;102007.66;;;22.23;50.28
66021;BME280;52789;59.980;30.346;2023-06-19T03:28:23;102007.00;;;22.68;48.06
66021;BME280;52789;59.980;30.346;2023-06-19T03:30:48;102012.22;;;22.89;47.31
66021;BME280;52789;59.980;30.346;2023-06-19T03:33:13;102001.53;;;23.39;47.92
66021;BME280;52789;59.980;30.346;2023-06-19T03:35:38;101999.09;;;23.94;46.55
66021;BME280;52789;59.980;30.346;2023-06-19T03:38:04;102004.72;;;24.30;45.26
66021;BME280;52789;59.980;30.346;2023-06-19T03:40:29;102001.41;;;23.65;44.98
66021;BME280;52789;59.980;30.346;2023-06-19T03:42:54;102003.44;;;22.67;46.23
66021;BME280;52789;59.980;30.346;2023-06-19T03:45:20;102002.81;;;22.85;46.48
66021;BME280;52789;59.980;30.346;2023-06-19T03:47:45;102000.34;;;23.66;45.30
66021;BME280;52789;59.980;30.346;2023-06-19T03:50:10;102004.88;;;24.35;39.14
66021;BME280;52789;59.980;30.346;2023-06-19T03:52:36;101999.06;;;24.50;39.28
66021;BME280;52789;59.980;30.346;2023-06-19T03:55:02;102008.22;;;24.74;39.01
66021;BME280;52789;59.980;30.346;2023-06-19T03:57:29;102001.28;;;24.96;37.99
66021;BME280;52789;59.980;30.346;2023-06-19T03:59:55;102009.00;;;25.18;38.33
66021;BME280;52789;59.980;30.346;2023-06-19T04:02:21;101998.47;;;25.21;36.81
66021;BME280;52789;59.980;30.346;2023-06-19T04:04:46;101989.75;;;25.31;38.34
66021;BME280;52789;59.980;30.346;2023-06-19T04:07:12;101996.50;;;25.28;35.23
66021;BME280;52789;59.980;30.346;2023-06-19T04:09:40;101999.47;;;25.39;37.35
66021;BME280;52789;59.980;30.346;2023-06-19T04:12:05;101994.34;;;25.60;35.14
66021;BME280;52789;59.980;30.346;2023-06-19T04:14:31;101958.22;;;25.35;34.83
66021;BME280;52789;59.980;30.346;2023-06-19T04:16:56;101986.22;;;25.42;35.54
66021;BME280;52789;59.980;30.346;2023-06-19T04:19:21;101993.44;;;25.37;34.72
66021;BME280;52789;59.980;30.346;2023-06-19T04:21:46;101989.00;;;25.54;36.31
66021;BME280;52789;59.980;30.346;2023-06-19T04:24:12;101985.16;;;25.73;34.20
66021;BME280;52789;59.980;30.346;2023-06-19T04:26:37;101947.59;;;25.45;34.71
66021;BME280;52789;59.980;30.346;2023-06-19T04:29:02;101986.16;;;25.49;35.60
66021;BME280;52789;59.980;30.346;2023-06-19T04:31:28;101986.22;;;25.72;34.08
66021;BME280;52789;59.980;30.346;2023-06-19T04:33:54;101980.09;;;25.77;35.36
66021;BME280;52789;59.980;30.346;2023-06-19T04:36:21;101977.28;;;26.07;33.84
66021;BME280;52789;59.980;30.346;2023-06-19T04:38:47;101980.75;;;25.72;34.07
66021;BME280;52789;59.980;30.346;2023-06-19T04:41:12;101979.03;;;25.48;35.17
66021;BME280;52789;59.980;30.346;2023-06-19T04:43:38;101974.88;;;25.87;34.97
66021;BME280;52789;59.980;30.346;2023-06-19T04:46:06;101986.28;;;26.31;33.21
66021;BME280;52789;59.980;30.346;2023-06-19T04:48:31;101983.38;;;26.44;32.84
66021;BME280;52789;59.980;30.346;2023-06-19T04:50:57;101982.72;;;26.30;33.39
66021;BME280;52789;59.980;30.346;2023-06-19T04:53:22;101981.84;;;26.36;34.02
66021;BME280;52789;59.980;30.346;2023-06-19T04:55:48;101981.22;;;26.46;32.76
66021;BME280;52789;59.980;30.346;2023-06-19T04:58:14;101981.66;;;26.19;33.20
66021;BME280;52789;59.980;30.346;2023-06-19T05:00:40;101980.34;;;25.87;32.39
66021;BME280;52789;59.980;30.346;2023-06-19T05:03:05;101977.38;;;26.00;31.90
66021;BME280;52789;59.980;30.346;2023-06-19T05:05:30;101980.38;;;26.10;32.23
66021;BME280;52789;59.980;30.346;2023-06-19T05:07:55;101977.38;;;26.00;32.13
66021;BME280;52789;59.980;30.346;2023-06-19T05:10:21;101975.00;;;25.92;32.25
66021;BME280;52789;59.980;30.346;2023-06-19T05:12:46;101972.63;;;25.84;32.64
66021;BME280;52789;59.980;30.346;2023-06-19T05:15:12;101977.84;;;25.55;32.90
66021;BME280;52789;59.980;30.346;2023-06-19T05:17:37;101951.00;;;25.11;33.19
66021;BME280;52789;59.980;30.346;2023-06-19T05:20:04;101972.72;;;24.81;33.71
66021;BME280;52789;59.980;30.346;2023-06-19T05:22:30;101971.59;;;24.52;34.72
66021;BME280;52789;59.980;30.346;2023-06-19T05:24:56;101965.84;;;24.17;35.22
66021;BME280;52789;59.980;30.346;2023-06-19T05:27:21;101964.06;;;23.47;36.54
66021;BME280;52789;59.980;30.346;2023-06-19T05:29:47;101969.69;;;22.30;37.14
66021;BME280;52789;59.980;30.346;2023-06-19T05:32:12;101964.50;;;21.15;39.10
66021;BME280;52789;59.980;30.346;2023-06-19T05:34:38;101963.97;;;20.50;40.61
66021;BME280;52789;59.980;30.346;2023-06-19T05:37:03;101956.38;;;20.11;41.59
66021;BME280;52789;59.980;30.346;2023-06-19T05:39:28;101955.91;;;19.79;41.08
66021;BME280;52789;59.980;30.346;2023-06-19T05:41:54;101956.25;;;19.70;42.02
66021;BME280;52789;59.980;30.346;2023-06-19T05:44:19;101955.88;;;19.73;41.76
66021;BME280;52789;59.980;30.346;2023-06-19T05:46:45;101962.69;;;19.69;40.51
66021;BME280;52789;59.980;30.346;2023-06-19T05:49:10;101957.78;;;19.58;39.15
66021;BME280;52789;59.980;30.346;2023-06-19T05:51:35;101959.06;;;19.62;41.04
66021;BME280;52789;59.980;30.346;2023-06-19T05:54:01;101965.00;;;19.72;41.19
66021;BME280;52789;59.980;30.346;2023-06-19T05:56:31;101960.69;;;19.77;40.24
66021;BME280;52789;59.980;30.346;2023-06-19T05:58:58;101972.59;;;19.83;41.40
66021;BME280;52789;59.980;30.346;2023-06-19T06:01:23;101970.31;;;19.87;41.10
66021;BME280;52789;59.980;30.346;2023-06-19T06:03:49;101964.09;;;19.86;40.26
66021;BME280;52789;59.980;30.346;2023-06-19T06:06:14;101973.22;;;19.85;40.24
66021;BME280;52789;59.980;30.346;2023-06-19T06:08:40;101961.53;;;19.78;37.60
66021;BME280;52789;59.980;30.346;2023-06-19T06:11:05;101958.97;;;19.70;36.39
66021;BME280;52789;59.980;30.346;2023-06-19T06:13:30;101964.38;;;19.70;36.02
66021;BME280;52789;59.980;30.346;2023-06-19T06:15:56;101959.00;;;19.76;36.67
66021;BME280;52789;59.980;30.346;2023-06-19T06:18:21;101966.94;;;19.78;36.32
66021;BME280;52789;59.980;30.346;2023-06-19T06:20:47;101969.25;;;19.81;36.13
66021;BME280;52789;59.980;30.346;2023-06-19T06:23:12;101963.06;;;19.87;33.24
66021;BME280;52789;59.980;30.346;2023-06-19T06:25:38;101974.13;;;19.92;34.42
66021;BME280;52789;59.980;30.346;2023-06-19T06:28:03;101960.47;;;20.00;35.03
66021;BME280;52789;59.980;30.346;2023-06-19T06:30:28;101972.97;;;20.01;30.10
66021;BME280;52789;59.980;30.346;2023-06-19T06:32:54;101965.88;;;20.00;31.68
66021;BME280;52789;59.980;30.346;2023-06-19T06:35:19;101967.41;;;20.09;32.67
66021;BME280;52789;59.980;30.346;2023-06-19T06:37:44;101966.84;;;20.21;34.68
66021;BME280;52789;59.980;30.346;2023-06-19T06:40:11;101965.78;;;20.15;32.74
66021;BME280;52789;59.980;30.346;2023-06-19T06:42:37;101956.44;;;20.18;33.21
66021;BME280;52789;59.980;30.346;2023-06-19T06:45:03;101952.09;;;20.23;33.73
66021;BME280;52789;59.980;30.346;2023-06-19T06:47:29;101958.81;;;20.27;32.70
66021;BME280;52789;59.980;30.346;2023-06-19T06:49:54;101953.13;;;20.22;32.09
66021;BME280;52789;59.980;30.346;2023-06-19T06:52:20;101951.81;;;20.11;31.73
66021;BME280;52789;59.980;30.346;2023-06-19T06:54:45;101955.34;;;20.12;33.90
66021;BME280;52789;59.980;30.346;2023-06-19T06:57:10;101951.34;;;20.01;32.77
66021;BME280;52789;59.980;30.346;2023-06-19T06:59:36;101958.38;;;19.96;32.93
66021;BME280;52789;59.980;30.346;2023-06-19T07:02:01;101962.53;;;19.98;33.89
66021;BME280;52789;59.980;30.346;2023-06-19T07:04:26;101955.06;;;20.00;33.37
66021;BME280;52789;59.980;30.346;2023-06-19T07:06:51;101952.22;;;20.08;33.24
66021;BME280;52789;59.980;30.346;2023-06-19T07:09:17;101950.63;;;20.21;33.30
66021;BME280;52789;59.980;30.346;2023-06-19T07:11:43;101955.09;;;20.35;33.93
66021;BME280;52789;59.980;30.346;2023-06-19T07:14:09;101948.09;;;20.40;34.52
66021;BME280;52789;59.980;30.346;2023-06-19T07:16:34;101950.72;;;20.34;34.88
66021;BME280;52789;59.980;30.346;2023-06-19T07:18:59;101950.22;;;20.24;35.40
66021;BME280;52789;59.980;30.346;2023-06-19T07:21:24;101948.94;;;20.20;36.10
66021;BME280;52789;59.980;30.346;2023-06-19T07:23:51;101940.31;;;20.31;35.57
66021;BME280;52789;59.980;30.346;2023-06-19T07:26:17;101940.81;;;20.41;34.98
66021;BME280;52789;59.980;30.346;2023-06-19T07:28:42;101940.81;;;20.41;35.86
66021;BME280;52789;59.980;30.346;2023-06-19T07:31:07;101949.03;;;20.26;35.30
66021;BME280;52789;59.980;30.346;2023-06-19T07:33:33;101940.19;;;20.18;34.38
66021;BME280;52789;59.980;30.346;2023-06-19T07:35:58;101934.78;;;20.18;35.19
66021;BME280;52789;59.980;30.346;2023-06-19T07:38:24;101934.34;;;20.14;35.61
66021;BME280;52789;59.980;30.346;2023-06-19T07:40:49;101935.19;;;20.15;35.04
66021;BME280;52789;59.980;30.346;2023-06-19T07:43:15;101940.75;;;20.06;35.76
66021;BME280;52789;59.980;30.346;2023-06-19T07:45:40;101933.91;;;20.10;35.95
66021;BME280;52789;59.980;30.346;2023-06-19T07:48:05;101931.25;;;20.17;35.82
66021;BME280;52789;59.980;30.346;2023-06-19T07:50:31;101938.53;;;20.17;35.37
66021;BME280;52789;59.980;30.346;2023-06-19T07:52:57;101931.44;;;20.16;34.11
66021;BME280;52789;59.980;30.346;2023-06-19T07:55:22;101935.69;;;20.25;34.65
66021;BME280;52789;59.980;30.346;2023-06-19T07:57:47;101930.13;;;20.33;32.79
66021;BME280;52789;59.980;30.346;2023-06-19T08:00:13;101933.47;;;20.35;32.26
66021;BME280;52789;59.980;30.346;2023-06-19T08:02:39;101935.72;;;20.31;33.05
66021;BME280;52789;59.980;30.346;2023-06-19T08:05:04;101931.78;;;20.34;33.39
66021;BME280;52789;59.980;30.346;2023-06-19T08:07:30;101929.50;;;20.31;31.20
66021;BME280;52789;59.980;30.346;2023-06-19T08:09:55;101928.69;;;20.37;32.01
66021;BME280;52789;59.980;30.346;2023-06-19T08:12:22;101930.34;;;20.38;31.51
66021;BME280;52789;59.980;30.346;2023-06-19T08:14:47;101926.63;;;20.39;32.24
66021;BME280;52789;59.980;30.346;2023-06-19T08:17:12;101936.25;;;20.41;32.89
66021;BME280;52789;59.980;30.346;2023-06-19T08:19:38;101932.94;;;20.46;32.49
66021;BME280;52789;59.980;30.346;2023-06-19T08:22:04;101925.84;;;20.45;31.17
66021;BME280;52789;59.980;30.346;2023-06-19T08:24:30;101927.13;;;20.49;31.34
66021;BME280;52789;59.980;30.346;2023-06-19T08:26:55;101916.28;;;20.49;31.02
66021;BME280;52789;59.980;30.346;2023-06-19T08:29:20;101919.41;;;20.46;31.53
66021;BME280;52789;59.980;30.346;2023-06-19T08:31:46;101917.13;;;20.50;31.92
66021;BME280;52789;59.980;30.346;2023-06-19T08:34:11;101918.78;;;20.51;31.72
66021;BME280;52789;59.980;30.346;2023-06-19T08:36:36;101916.94;;;20.51;31.47
66021;BME280;52789;59.980;30.346;2023-06-19T08:39:02;101920.28;;;20.53;30.35
66021;BME280;52789;59.980;30.346;2023-06-19T08:41:27;101919.25;;;20.54;30.56
66021;BME280;52789;59.980;30.346;2023-06-19T08:43:53;101918.44;;;20.60;31.41
66021;BME280;52789;59.980;30.346;2023-06-19T08:46:22;101917.22;;;20.69;31.89
66021;BME280;52789;59.980;30.346;2023-06-19T08:48:49;101912.06;;;20.81;31.52
66021;BME280;52789;59.980;30.346;2023-06-19T08:51:15;101912.31;;;20.86;32.12
66021;BME280;52789;59.980;30.346;2023-06-19T08:53:44;101914.41;;;20.84;32.08
66021;BME280;52789;59.980;30.346;2023-06-19T08:56:10;101916.91;;;20.86;32.22
66021;BME280;52789;59.980;30.346;2023-06-19T08:58:36;101911.91;;;20.83;31.57
66021;BME280;52789;59.980;30.346;2023-06-19T09:01:01;101917.31;;;20.89;31.98
66021;BME280;52789;59.980;30.346;2023-06-19T09:03:27;101916.09;;;20.92;31.16
66021;BME280;52789;59.980;30.346;2023-06-19T09:05:52;101907.34;;;20.90;31.44
66021;BME280;52789;59.980;30.346;2023-06-19T09:08:18;101901.09;;;20.89;31.06
66021;BME280;52789;59.980;30.346;2023-06-19T09:10:59;101903.59;;;20.91;31.35
66021;BME280;52789;59.980;30.346;2023-06-19T09:13:25;101907.78;;;21.00;31.28
66021;BME280;52789;59.980;30.346;2023-06-19T09:16:01;101905.28;;;21.05;31.18
66021;BME280;52789;59.980;30.346;2023-06-19T09:18:28;101906.53;;;21.02;31.39
66021;BME280;52789;59.980;30.346;2023-06-19T09:20:54;101901.31;;;21.01;31.03
66021;BME280;52789;59.980;30.346;2023-06-19T09:23:20;101901.72;;;20.98;30.46
66021;BME280;52789;59.980;30.346;2023-06-19T09:28:21;101889.88;;;21.06;30.79
66021;BME280;52789;59.980;30.346;2023-06-19T09:30:59;101886.13;;;21.07;29.86
66021;BME280;52789;59.980;30.346;2023-06-19T09:33:28;101889.06;;;21.12;29.74
66021;BME280;52789;59.980;30.346;2023-06-19T09:35:55;101878.63;;;21.09;30.08
66021;BME280;52789;59.980;30.346;2023-06-19T09:38:21;101879.44;;;21.09;31.68
66021;BME280;52789;59.980;30.346;2023-06-19T09:40:49;101877.81;;;21.21;32.42
66021;BME280;52789;59.980;30.346;2023-06-19T09:43:18;101885.38;;;21.32;32.27
66021;BME280;52789;59.980;30.346;2023-06-19T09:45:46;101881.81;;;21.39;31.50
66021;BME280;52789;59.980;30.346;2023-06-19T09:48:13;101871.22;;;21.44;31.65
66021;BME280;52789;59.980;30.346;2023-06-19T09:50:39;101872.47;;;21.48;31.79
66021;BME280;52789;59.980;30.346;2023-06-19T09:53:06;101870.81;;;21.53;30.87
66021;BME280;52789;59.980;30.346;2023-06-19T09:55:32;101870.38;;;21.56;30.94
66021;BME280;52789;59.980;30.346;2023-06-19T09:57:58;101879.56;;;21.62;31.00
66021;BME280;52789;59.980;30.346;2023-06-19T10:00:24;101882.06;;;21.57;30.57
66021;BME280;52789;59.980;30.346;2023-06-19T10:02:56;101875.81;;;21.56;31.10
66021;BME280;52789;59.980;30.346;2023-06-19T10:05:29;101871.63;;;21.54;31.12
66021;BME280;52789;59.980;30.346;2023-06-19T10:07:55;101872.88;;;21.51;30.95
66021;BME280;52789;59.980;30.346;2023-06-19T10:10:25;101868.94;;;21.54;30.88
66021;BME280;52789;59.980;30.346;2023-06-19T10:12:55;101867.88;;;21.61;30.00
66021;BME280;52789;59.980;30.346;2023-06-19T10:15:22;101869.56;;;21.56;29.98
66021;BME280;52789;59.980;30.346;2023-06-19T10:17:51;101858.69;;;21.62;30.83
66021;BME280;52789;59.980;30.346;2023-06-19T10:20:24;101856.00;;;21.62;31.16
66021;BME280;52789;59.980;30.346;2023-06-19T10:23:24;101855.78;;;21.64;29.99
66021;BME280;52789;59.980;30.346;2023-06-19T10:25:44;101855.78;;;21.57;31.14
66021;BME280;52789;59.980;30.346;2023-06-19T10:28:16;101856.63;;;21.58;31.92
66021;BME280;52789;59.980;30.346;2023-06-19T10:30:42;101847.03;;;21.62;33.21
66021;BME280;52789;59.980;30.346;2023-06-19T10:33:07;101856.63;;;21.71;32.88
66021;BME280;52789;59.980;30.346;2023-06-19T10:35:39;101857.25;;;21.73;32.69
66021;BME280;52789;59.980;30.346;2023-06-19T10:38:05;101847.88;;;21.69;32.12
66021;BME280;52789;59.980;30.346;2023-06-19T10:40:30;101849.53;;;21.70;32.64
66021;BME280;52789;59.980;30.346;2023-06-19T10:42:56;101846.19;;;21.75;31.85
66021;BME280;52789;59.980;30.346;2023-06-19T10:45:21;101841.63;;;21.75;32.26
66021;BME280;52789;59.980;30.346;2023-06-19T10:47:53;101833.66;;;21.80;32.53
66021;BME280;52789;59.980;30.346;2023-06-19T10:50:19;101823.22;;;21.90;32.90
66021;BME280;52789;59.980;30.346;2023-06-19T10:52:45;101831.56;;;22.02;33.00
66021;BME280;52789;59.980;30.346;2023-06-19T10:55:13;101825.94;;;22.04;32.43
66021;BME280;52789;59.980;30.346;2023-06-19T10:57:40;101831.97;;;22.12;32.92
66021;BME280;52789;59.980;30.346;2023-06-19T11:00:09;101830.47;;;22.23;33.19
66021;BME280;52789;59.980;30.346;2023-06-19T11:02:41;101829.41;;;22.31;32.26
66021;BME280;52789;59.980;30.346;2023-06-19T11:05:09;101823.59;;;22.27;32.31
66021;BME280;52789;59.980;30.346;2023-06-19T11:07:35;101821.50;;;22.22;32.61
66021;BME280;52789;59.980;30.346;2023-06-19T11:10:00;101816.47;;;22.26;32.58
66021;BME280;52789;59.980;30.346;2023-06-19T11:12:26;101815.63;;;22.32;32.97
66021;BME280;52789;59.980;30.346;2023-06-19T11:14:51;101804.97;;;22.37;32.69
66021;BME280;52789;59.980;30.346;2023-06-19T11:17:17;101807.63;;;22.44;32.92
66021;BME280;52789;59.980;30.346;2023-06-19T11:19:49;101807.59;;;22.50;33.04
66021;BME280;52789;59.980;30.346;2023-06-19T11:22:14;101815.34;;;22.47;32.11
66021;BME280;52789;59.980;30.346;2023-06-19T11:24:46;101803.06;;;22.38;32.14
66021;BME280;52789;59.980;30.346;2023-06-19T11:27:19;101798.47;;;22.38;32.48
66021;BME280;52789;59.980;30.346;2023-06-19T11:29:54;101793.06;;;22.38;32.72
66021;BME280;52789;59.980;30.346;2023-06-19T11:32:20;101796.81;;;22.37;32.83
66021;BME280;52789;59.980;30.346;2023-06-19T11:34:48;101795.16;;;22.36;32.80
66021;BME280;52789;59.980;30.346;2023-06-19T11:37:16;101791.38;;;22.37;32.73
66021;BME280;52789;59.980;30.346;2023-06-19T11:39:46;101793.50;;;22.35;32.68
66021;BME280;52789;59.980;30.346;2023-06-19T11:42:12;101787.19;;;22.41;32.96
66021;BME280;52789;59.980;30.346;2023-06-19T11:44:54;101784.66;;;22.46;33.57
66021;BME280;52789;59.980;30.346;2023-06-19T11:47:20;101787.09;;;22.54;33.05
66021;BME280;52789;59.980;30.346;2023-06-19T11:49:47;101791.31;;;22.57;33.11
66021;BME280;52789;59.980;30.346;2023-06-19T11:52:12;101777.94;;;22.55;33.56
66021;BME280;52789;59.980;30.346;2023-06-19T11:54:37;101777.75;;;22.50;33.69
66021;BME280;52789;59.980;30.346;2023-06-19T11:57:03;101781.31;;;22.44;33.93
66021;BME280;52789;59.980;30.346;2023-06-19T11:59:28;101769.63;;;22.44;34.46
66021;BME280;52789;59.980;30.346;2023-06-19T12:01:55;101773.78;;;22.46;33.80
66021;BME280;52789;59.980;30.346;2023-06-19T12:04:23;101768.38;;;22.46;34.56
66021;BME280;52789;59.980;30.346;2023-06-19T12:06:48;101758.16;;;22.42;34.25
66021;BME280;52789;59.980;30.346;2023-06-19T12:09:13;101770.50;;;22.38;34.35
66021;BME280;52789;59.980;30.346;2023-06-19T12:11:40;101754.69;;;22.28;35.20
66021;BME280;52789;59.980;30.346;2023-06-19T12:14:06;101762.19;;;22.26;34.56
66021;BME280;52789;59.980;30.346;2023-06-19T12:16:31;101764.91;;;22.26;34.47
66021;BME280;52789;59.980;30.346;2023-06-19T12:18:56;101770.97;;;22.28;34.59
66021;BME280;52789;59.980;30.346;2023-06-19T12:21:21;101764.72;;;22.28;34.78
66021;BME280;52789;59.980;30.346;2023-06-19T12:23:47;101759.47;;;22.26;35.16
66021;BME280;52789;59.980;30.346;2023-06-19T12:26:13;101759.06;;;22.29;34.93
66021;BME280;52789;59.980;30.346;2023-06-19T12:28:38;101751.91;;;22.41;35.87
66021;BME280;52789;59.980;30.346;2023-06-19T12:31:03;101756.28;;;22.42;34.96
66021;BME280;52789;59.980;30.346;2023-06-19T12:33:29;101750.63;;;22.44;35.20
66021;BME280;52789;59.980;30.346;2023-06-19T12:35:58;101750.25;;;22.40;35.04
66021;BME280;52789;59.980;30.346;2023-06-19T12:38:23;101745.44;;;22.42;34.60
66021;BME280;52789;59.980;30.346;2023-06-19T12:40:48;101746.22;;;22.49;34.74